Time;durP1;ratioP1;P1;durP2;ratioP2;P2;SDS_P1;SDS_P2;PMS_P1;PMS_P2;Temp;Humidity;BMP_temperature;BMP_pressure;BME280_temperature;BME280_humidity;BME280_pressure;Samples;Min_cycle;Max_cycle;Signal;HPM_P1;HPM_P2
2022/04/07 00:02:13;;;;;;;22.10;14.58;;;;;;;7.84;83.18;98545.77;1652155;84;27217;-67
2022/04/07 00:04:40;;;;;;;24.02;13.85;;;;;;;7.83;82.88;98538.03;1643649;85;25846;-66
2022/04/07 00:07:06;;;;;;;24.65;14.43;;;;;;;7.82;82.87;98533.22;1641662;84;25654;-65
2022/04/07 00:11:59;;;;;;;23.10;13.20;;;;;;;7.82;82.81;98526.48;1652665;86;25693;-67
2022/04/07 00:14:25;;;;;;;20.20;13.62;;;;;;;7.82;82.87;98520.33;1640842;86;27429;-67
2022/04/07 00:16:52;;;;;;;19.12;13.05;;;;;;;7.83;82.72;98530.76;1653881;86;25840;-67
2022/04/07 00:19:19;;;;;;;19.15;13.38;;;;;;;7.83;82.65;98521.87;1640876;86;25411;-67
2022/04/07 00:21:46;;;;;;;20.85;13.78;;;;;;;7.82;82.72;98516.28;1642446;86;27807;-67
2022/04/07 00:24:13;;;;;;;23.47;12.95;;;;;;;7.82;82.74;98508.98;1658507;86;25499;-67
2022/04/07 00:26:40;;;;;;;18.87;13.48;;;;;;;7.81;82.82;98507.97;1660631;86;27339;-67
2022/04/07 00:29:06;;;;;;;21.73;13.03;;;;;;;7.81;82.70;98504.71;1653369;86;25719;-68
2022/04/07 00:31:39;;;;;;;22.22;13.25;;;;;;;7.81;82.74;98498.55;1645149;86;26725;-69
2022/04/07 00:34:01;;;;;;;21.70;13.72;;;;;;;7.81;82.88;98503.94;1649210;86;25625;-69
2022/04/07 00:36:27;;;;;;;19.77;13.62;;;;;;;7.82;82.72;98500.14;1641518;85;25645;-69
2022/04/07 00:38:53;;;;;;;21.20;12.25;;;;;;;7.82;82.67;98505.52;1645262;86;27325;-69
2022/04/07 00:41:19;;;;;;;22.15;13.48;;;;;;;7.81;82.62;98495.30;1639907;86;25865;-69
2022/04/07 00:43:51;;;;;;;18.55;13.25;;;;;;;7.81;82.70;98501.25;1652798;86;25772;-69
2022/04/07 00:46:19;;;;;;;21.65;13.55;;;;;;;7.79;82.46;98493.50;1648089;86;25810;-69
2022/04/07 00:48:46;;;;;;;20.92;13.10;;;;;;;7.78;82.46;98490.60;1645594;86;25816;-69
2022/04/07 00:51:13;;;;;;;20.75;13.13;;;;;;;7.75;82.57;98485.88;1649596;86;27626;-69
2022/04/07 00:53:40;;;;;;;22.62;14.13;;;;;;;7.75;82.93;98485.10;1659841;86;25415;-69
2022/04/07 00:56:08;;;;;;;24.23;13.68;;;;;;;7.74;82.78;98482.17;1654057;84;25905;-69
2022/04/07 00:58:36;;;;;;;18.67;13.70;;;;;;;7.73;82.74;98482.74;1655482;84;25718;-70
2022/04/07 01:01:03;;;;;;;22.27;13.90;;;;;;;7.76;82.87;98485.31;1645916;84;25107;-69
2022/04/07 01:03:29;;;;;;;24.67;14.93;;;;;;;7.75;82.77;98481.06;1654076;85;27956;-69
2022/04/07 01:05:56;;;;;;;22.17;13.88;;;;;;;7.76;82.77;98476.67;1657409;84;25773;-69
2022/04/07 01:08:23;;;;;;;25.92;14.00;;;;;;;7.76;82.83;98469.16;1653929;86;25552;-70
2022/04/07 01:10:50;;;;;;;23.02;14.60;;;;;;;7.77;82.81;98471.52;1658518;85;25613;-69
2022/04/07 01:13:16;;;;;;;22.42;13.45;;;;;;;7.77;82.93;98471.52;1634627;85;25881;-69
2022/04/07 01:15:43;;;;;;;21.02;14.00;;;;;;;7.79;82.93;98463.89;1641353;84;27411;-69
2022/04/07 01:18:11;;;;;;;23.12;14.30;;;;;;;7.81;82.91;98466.25;1642948;86;25720;-70
2022/04/07 01:20:39;;;;;;;21.37;13.88;;;;;;;7.82;83.03;98464.58;1646729;86;25865;-70
2022/04/07 01:23:11;;;;;;;17.67;13.68;;;;;;;7.85;82.90;98465.83;1662489;86;25759;-70
2022/04/07 01:25:38;;;;;;;24.37;14.13;;;;;;;7.86;83.03;98460.65;1649081;85;25714;-70
2022/04/07 01:28:04;;;;;;;21.65;13.80;;;;;;;7.85;82.91;98454.48;1645274;86;27501;-70
2022/04/07 01:30:31;;;;;;;21.62;13.80;;;;;;;7.87;82.99;98452.81;1646410;86;25736;-70
2022/04/07 01:33:01;;;;;;;24.12;13.50;;;;;;;7.88;83.04;98450.33;1655263;85;25578;-70
2022/04/07 01:35:30;;;;;;;22.87;13.45;;;;;;;7.89;82.92;98449.22;1649206;84;25937;-70
2022/04/07 01:37:59;;;;;;;22.13;14.20;;;;;;;7.91;82.90;98444.28;1645091;86;25726;-70
2022/04/07 01:40:30;;;;;;;25.52;14.07;;;;;;;7.94;83.17;98445.53;1622987;85;28103;-69
2022/04/07 01:42:58;;;;;;;20.75;12.93;;;;;;;7.93;82.80;98443.95;1644898;86;25858;-69
2022/04/07 01:45:26;;;;;;;24.40;14.18;;;;;;;7.95;82.83;98445.73;1658256;86;25461;-69
2022/04/07 01:47:54;;;;;;;24.47;15.00;;;;;;;7.96;82.94;98450.02;1640454;86;26282;-70
2022/04/07 01:50:25;;;;;;;22.10;13.62;;;;;;;7.97;82.78;98447.55;1645885;86;27723;-70
2022/04/07 01:52:52;;;;;;;22.52;13.25;;;;;;;7.98;82.83;98445.84;1647788;86;27342;-70
2022/04/07 01:55:18;;;;;;;22.80;14.30;;;;;;;8.01;83.00;98439.79;1666729;86;25601;-70
2022/04/07 01:57:45;;;;;;;22.58;14.63;;;;;;;8.02;82.75;98429.83;1662400;86;25866;-70
2022/04/07 02:00:14;;;;;;;24.85;14.65;;;;;;;8.03;82.67;98430.03;1655054;86;25632;-69
2022/04/07 02:02:41;;;;;;;21.47;14.37;;;;;;;8.06;82.81;98429.94;1649503;86;25436;-69
2022/04/07 02:05:11;;;;;;;20.95;13.72;;;;;;;8.07;82.81;98434.19;1649372;86;27294;-69
2022/04/07 02:07:40;;;;;;;21.70;14.18;;;;;;;8.07;82.71;98426.10;1654022;86;25229;-69
2022/04/07 02:10:10;;;;;;;21.05;14.10;;;;;;;8.08;82.82;98427.11;1645262;86;25505;-69
2022/04/07 02:12:42;;;;;;;20.00;13.30;;;;;;;8.09;82.61;98433.28;1644202;86;26571;-69
2022/04/07 02:15:10;;;;;;;20.43;14.13;;;;;;;8.08;82.62;98432.50;1653469;86;25644;-69
2022/04/07 02:17:37;;;;;;;21.90;13.38;;;;;;;8.08;82.56;98423.65;1648870;86;27333;-69
2022/04/07 02:20:08;;;;;;;22.20;14.55;;;;;;;8.07;82.53;98421.52;1643332;84;25856;-70
2022/04/07 02:22:35;;;;;;;24.57;14.45;;;;;;;8.06;82.46;98427.25;1628952;86;25504;-70
2022/04/07 02:25:03;;;;;;;19.70;13.60;;;;;;;8.05;82.48;98415.66;1651778;86;26302;-69
2022/04/07 02:27:38;;;;;;;20.62;13.80;;;;;;;8.04;82.33;98412.20;1645635;86;25435;-70
2022/04/07 02:30:12;;;;;;;22.37;13.75;;;;;;;8.02;82.71;98402.33;1645298;86;27445;-69
2022/04/07 02:32:39;;;;;;;20.50;14.05;;;;;;;8.01;82.51;98406.70;1652939;86;25577;-70
2022/04/07 02:35:08;;;;;;;22.20;13.83;;;;;;;7.99;82.52;98401.66;1643295;86;25420;-70
2022/04/07 02:37:35;;;;;;;24.07;14.63;;;;;;;7.97;82.43;98395.83;1664539;86;35353;-70
2022/04/07 02:40:01;;;;;;;21.95;14.05;;;;;;;7.96;82.55;98402.33;1646831;86;25460;-70
2022/04/07 02:42:27;;;;;;;21.55;14.25;;;;;;;7.95;82.87;98398.63;1656657;86;27402;-70
2022/04/07 02:44:53;;;;;;;24.00;14.75;;;;;;;7.93;82.79;98396.27;1641497;86;25762;-70
2022/04/07 02:47:20;;;;;;;25.30;15.53;;;;;;;7.92;82.95;98393.37;1658117;86;25433;-70
2022/04/07 02:49:47;;;;;;;19.77;13.58;;;;;;;7.91;82.97;98397.73;1640299;85;25557;-70
2022/04/07 02:52:13;;;;;;;25.40;14.33;;;;;;;7.90;83.17;98397.50;1640879;86;25645;-70
2022/04/07 02:54:39;;;;;;;22.93;15.35;;;;;;;7.88;82.91;98399.18;1641100;85;27525;-71
2022/04/07 02:57:06;;;;;;;24.45;14.28;;;;;;;7.86;83.09;98388.75;1645075;85;25700;-70
2022/04/07 02:59:33;;;;;;;24.63;14.35;;;;;;;7.86;83.24;98387.97;1662452;86;25638;-70
2022/04/07 03:02:00;;;;;;;22.65;14.83;;;;;;;7.85;83.14;98385.85;1644378;86;25622;-70
2022/04/07 03:04:26;;;;;;;22.85;14.53;;;;;;;7.84;83.36;98375.42;1646182;86;25819;-70
2022/04/07 03:06:53;;;;;;;23.80;14.63;;;;;;;7.81;83.32;98372.83;1648894;86;27319;-70
2022/04/07 03:09:21;;;;;;;26.17;15.60;;;;;;;7.83;83.46;98379.22;1626947;86;25668;-70
2022/04/07 03:11:47;;;;;;;29.00;15.43;;;;;;;7.80;83.42;98369.16;1662018;86;25821;-70
2022/04/07 03:14:14;;;;;;;23.10;15.20;;;;;;;7.81;83.78;98365.32;1651654;86;26333;-70
2022/04/07 03:16:42;;;;;;;25.15;15.53;;;;;;;7.80;83.70;98373.96;1644926;86;25506;-70
2022/04/07 03:19:09;;;;;;;26.52;15.58;;;;;;;7.81;83.75;98365.32;1640378;86;27599;-70
2022/04/07 03:21:36;;;;;;;23.65;15.35;;;;;;;7.81;83.80;98367.44;1644722;86;25824;-70
2022/04/07 03:24:02;;;;;;;25.82;15.30;;;;;;;7.80;83.73;98363.77;1640037;86;25522;-70
2022/04/07 03:26:29;;;;;;;28.23;16.00;;;;;;;7.79;83.83;98360.84;1641119;86;25608;-70
2022/04/07 03:28:56;;;;;;;24.72;15.78;;;;;;;7.80;83.90;98363.77;1650973;86;25418;-68
2022/04/07 03:31:23;;;;;;;26.05;14.10;;;;;;;7.79;83.85;98360.27;1644930;86;27456;-69
2022/04/07 03:33:49;;;;;;;24.27;15.48;;;;;;;7.77;84.43;98361.17;1641446;86;25535;-69
2022/04/07 03:36:16;;;;;;;25.12;15.88;;;;;;;7.75;84.14;98359.95;1648470;86;25235;-69
2022/04/07 03:38:42;;;;;;;25.50;15.40;;;;;;;7.74;84.00;98365.88;1648904;86;25779;-69
2022/04/07 03:41:09;;;;;;;24.35;14.78;;;;;;;7.74;84.18;98362.41;1655525;86;25450;-69
2022/04/07 03:43:35;;;;;;;25.02;16.35;;;;;;;7.74;84.04;98368.57;1632872;86;27317;-69
2022/04/07 03:46:02;;;;;;;25.12;15.60;;;;;;;7.72;84.17;98366.01;1643137;86;25595;-69
2022/04/07 03:48:29;;;;;;;25.65;15.32;;;;;;;7.72;84.13;98362.75;1649077;86;25902;-69
2022/04/07 03:50:56;;;;;;;23.57;15.08;;;;;;;7.71;84.18;98360.39;1651804;86;26120;-69
2022/04/07 03:53:22;;;;;;;26.87;16.62;;;;;;;7.70;84.37;98349.42;1647246;85;25457;-69
2022/04/07 03:55:48;;;;;;;21.02;14.78;;;;;;;7.68;84.49;98351.09;1654490;86;27286;-69
2022/04/07 03:58:15;;;;;;;22.85;14.58;;;;;;;7.63;84.34;98346.72;1652882;86;25756;-69
2022/04/07 04:00:42;;;;;;;24.25;15.58;;;;;;;7.64;84.45;98347.49;1640802;86;25603;-69
2022/04/07 04:03:08;;;;;;;25.95;16.12;;;;;;;7.64;84.66;98352.33;1639984;86;25602;-69
2022/04/07 04:05:35;;;;;;;23.80;15.03;;;;;;;7.63;84.63;98363.44;1647150;86;25921;-69
2022/04/07 04:08:01;;;;;;;25.23;15.63;;;;;;;7.64;84.72;98357.72;1633588;86;27288;-70
2022/04/07 04:10:28;;;;;;;25.92;15.65;;;;;;;7.64;84.97;98359.60;1640273;87;25526;-70
2022/04/07 04:12:55;;;;;;;21.15;15.23;;;;;;;7.65;85.07;98363.30;1612154;87;25492;-70
2022/04/07 04:15:21;;;;;;;23.35;15.58;;;;;;;7.68;84.90;98369.94;1610082;87;25975;-70
2022/04/07 04:17:47;;;;;;;21.02;14.63;;;;;;;7.67;84.98;98371.82;1649522;86;25776;-70
2022/04/07 04:20:13;;;;;;;23.70;14.33;;;;;;;7.70;84.90;98369.60;1655531;86;27433;-70
2022/04/07 04:22:40;;;;;;;25.12;15.20;;;;;;;7.70;85.04;98369.03;1642652;86;25571;-70
2022/04/07 04:25:08;;;;;;;23.77;13.85;;;;;;;7.71;84.95;98367.89;1644737;86;25846;-70
2022/04/07 04:27:35;;;;;;;23.30;15.10;;;;;;;7.73;84.95;98368.36;1643799;86;26228;-70
2022/04/07 04:30:02;;;;;;;24.45;14.83;;;;;;;7.74;84.81;98367.80;1653087;86;25587;-70
2022/04/07 04:32:28;;;;;;;23.73;15.13;;;;;;;7.75;85.02;98370.16;1645838;86;27329;-70
2022/04/07 04:34:54;;;;;;;26.52;15.68;;;;;;;7.77;84.92;98375.20;1622650;86;25924;-70
2022/04/07 04:37:25;;;;;;;23.50;14.93;;;;;;;7.79;84.81;98381.80;1644539;86;25461;-70
2022/04/07 04:39:49;;;;;;;24.67;14.68;;;;;;;7.81;84.89;98379.55;1646448;86;25630;-70
2022/04/07 04:42:16;;;;;;;23.80;14.50;;;;;;;7.81;84.94;98377.43;1641252;86;25900;-70
2022/04/07 04:44:42;;;;;;;22.32;15.60;;;;;;;7.81;84.84;98376.86;1654249;86;28068;-70
2022/04/07 04:47:08;;;;;;;24.18;14.93;;;;;;;7.81;84.85;98379.55;1621146;85;25534;-70
2022/04/07 04:49:35;;;;;;;25.02;15.13;;;;;;;7.82;84.88;98370.94;1637204;86;25785;-70
2022/04/07 04:52:01;;;;;;;24.63;14.73;;;;;;;7.84;84.97;98365.42;1637221;86;25854;-70
2022/04/07 04:54:28;;;;;;;23.07;15.10;;;;;;;7.87;84.83;98373.41;1628335;86;25532;-70
2022/04/07 04:56:54;;;;;;;21.45;14.55;;;;;;;7.89;84.74;98369.03;1631814;86;27893;-70
2022/04/07 04:59:21;;;;;;;23.73;14.40;;;;;;;7.91;84.68;98369.47;1610964;86;25746;-70
2022/04/07 05:01:47;;;;;;;23.00;15.18;;;;;;;7.92;84.69;98367.79;1587195;88;25908;-70
2022/04/07 05:04:13;;;;;;;23.90;15.20;;;;;;;7.96;84.66;98374.05;1611346;87;25656;-70
2022/04/07 05:06:40;;;;;;;26.15;14.50;;;;;;;7.96;84.75;98367.90;1612314;87;25477;-70
2022/04/07 05:09:07;;;;;;;29.55;14.85;;;;;;;7.99;84.59;98373.95;1601249;88;27378;-69
2022/04/07 05:11:34;;;;;;;26.30;14.83;;;;;;;8.02;84.54;98377.33;1600630;89;25908;-68
2022/04/07 05:14:01;;;;;;;23.98;14.75;;;;;;;8.05;84.47;98367.20;1623206;87;25487;-69
2022/04/07 05:16:28;;;;;;;22.80;14.03;;;;;;;8.09;84.49;98370.00;1617711;88;25600;-68
2022/04/07 05:18:54;;;;;;;26.50;14.80;;;;;;;8.13;84.35;98374.38;1607700;87;25446;-68
2022/04/07 05:21:21;;;;;;;21.25;15.08;;;;;;;8.17;84.22;98371.78;1587361;88;27331;-68
2022/04/07 05:23:48;;;;;;;23.35;14.63;;;;;;;8.21;84.20;98372.69;1592646;88;25490;-68
2022/04/07 05:26:15;;;;;;;26.48;14.85;;;;;;;8.25;84.03;98373.57;1595786;88;25436;-69
2022/04/07 05:28:43;;;;;;;22.65;14.43;;;;;;;8.28;83.97;98368.08;1610610;87;25990;-69
2022/04/07 05:31:18;;;;;;;23.52;14.85;;;;;;;8.31;83.80;98366.84;1588598;88;25506;-70
2022/04/07 05:33:47;;;;;;;21.87;13.98;;;;;;;8.35;83.66;98362.33;1595168;87;27382;-70
2022/04/07 05:36:14;;;;;;;24.25;14.45;;;;;;;8.40;83.61;98354.58;1601308;87;25557;-70
2022/04/07 05:38:41;;;;;;;22.80;14.15;;;;;;;8.43;83.61;98348.53;1595450;87;25543;-70
2022/04/07 05:41:08;;;;;;;22.60;14.33;;;;;;;8.51;83.48;98353.01;1600969;88;25951;-69
2022/04/07 05:43:34;;;;;;;23.32;13.72;;;;;;;8.56;83.28;98347.37;1605721;88;25596;-69
2022/04/07 05:46:02;;;;;;;19.73;13.40;;;;;;;8.63;83.25;98341.38;1607036;87;27370;-69
2022/04/07 05:48:29;;;;;;;20.65;13.58;;;;;;;8.71;83.09;98347.75;1596023;87;25572;-69
2022/04/07 05:50:55;;;;;;;22.13;13.75;;;;;;;8.78;82.87;98342.00;1593170;87;25902;-70
2022/04/07 05:53:23;;;;;;;19.48;13.13;;;;;;;8.88;82.52;98338.00;1603168;87;25682;-70
2022/04/07 05:55:50;;;;;;;19.75;13.55;;;;;;;8.99;82.55;98338.30;1610412;87;25727;-70
2022/04/07 05:58:19;;;;;;;19.23;12.47;;;;;;;9.12;82.36;98328.21;1595544;87;28294;-70
2022/04/07 06:00:46;;;;;;;;;;;;;;;9.25;81.90;98331.63;1596678;88;25459;-70
2022/04/07 06:03:12;;;;;;;19.92;12.53;;;;;;;9.39;81.24;98331.19;1582322;89;25622;-70
2022/04/07 06:05:39;;;;;;;17.20;11.48;;;;;;;9.54;81.21;98327.13;1579502;90;25825;-70
2022/04/07 06:08:07;;;;;;;18.57;12.50;;;;;;;9.71;80.92;98325.97;1614467;87;25456;-70
2022/04/07 06:10:34;;;;;;;22.25;11.90;;;;;;;9.88;80.82;98324.04;1588335;88;27342;-70
2022/04/07 06:13:00;;;;;;;18.90;11.50;;;;;;;10.05;80.22;98317.46;1604945;88;25675;-70
2022/04/07 06:15:28;;;;;;;18.67;11.57;;;;;;;10.19;79.11;98318.33;1582446;89;25823;-70
2022/04/07 06:17:56;;;;;;;21.75;10.78;;;;;;;10.27;78.88;98318.12;1599988;88;25627;-70
2022/04/07 06:20:23;;;;;;;20.77;10.40;;;;;;;10.38;77.64;98316.23;1571875;90;25663;-68
2022/04/07 06:22:50;;;;;;;19.30;10.78;;;;;;;10.53;77.57;98321.36;1609711;86;27259;-68
2022/04/07 06:25:17;;;;;;;21.45;11.22;;;;;;;10.64;75.96;98321.78;1617867;87;25716;-68
2022/04/07 06:27:46;;;;;;;18.10;10.80;;;;;;;10.78;77.21;98322.61;1594190;88;25467;-68
2022/04/07 06:30:16;;;;;;;19.80;10.35;;;;;;;10.93;75.46;98316.91;1587140;89;25743;-68
2022/04/07 06:32:44;;;;;;;19.90;10.80;;;;;;;11.09;76.02;98317.36;1586444;89;25451;-69
2022/04/07 06:35:14;;;;;;;18.37;10.35;;;;;;;11.26;75.46;98307.98;1590085;89;27436;-69
2022/04/07 06:37:56;;;;;;;16.97;10.40;;;;;;;11.45;74.83;98311.95;1592202;88;26047;-69
2022/04/07 06:40:22;;;;;;;20.00;10.10;;;;;;;11.56;73.61;98302.64;1589529;88;25514;-69
2022/04/07 06:42:49;;;;;;;;;;;;;;;11.68;73.53;98305.16;1593363;88;25748;-70
2022/04/07 06:45:16;;;;;;;12.70;9.03;;;;;;;11.83;73.58;98314.25;1589205;88;25594;-69
2022/04/07 06:47:46;;;;;;;15.30;9.38;;;;;;;11.89;71.73;98313.39;1586758;89;27355;-69
2022/04/07 06:50:15;;;;;;;12.63;9.35;;;;;;;11.94;71.04;98314.45;1591647;88;25622;-70
2022/04/07 06:52:43;;;;;;;14.33;9.58;;;;;;;11.98;71.50;98312.56;1589368;89;25466;-70
2022/04/07 06:55:12;;;;;;;12.53;8.95;;;;;;;12.10;70.58;98311.56;1586240;88;25822;-70
2022/04/07 06:58:00;;;;;;;15.58;9.60;;;;;;;12.17;70.09;98307.58;1586078;88;25769;-70
2022/04/07 07:00:35;;;;;;;18.15;8.88;;;;;;;12.28;70.10;98308.51;1587918;88;27332;-67
2022/04/07 07:03:04;;;;;;;19.37;9.28;;;;;;;12.63;69.65;98292.47;1587871;88;25833;-69
2022/04/07 07:05:33;;;;;;;13.80;9.07;;;;;;;13.29;68.14;98304.70;1592176;88;25466;-69
2022/04/07 07:08:12;;;;;;;;;;;;;;;13.29;68.14;98304.70;1597030;88;25683;-69
2022/04/07 07:10:39;;;;;;;13.88;8.93;;;;;;;13.55;67.95;98290.98;1617439;87;25481;-69
2022/04/07 07:13:06;;;;;;;14.23;8.50;;;;;;;13.85;64.50;98308.24;1588390;88;29537;-69
2022/04/07 07:15:33;;;;;;;13.35;8.68;;;;;;;14.00;66.20;98290.27;1610684;88;25839;-69
2022/04/07 07:17:59;;;;;;;15.00;8.63;;;;;;;14.35;64.70;98294.89;1610668;87;25448;-69
2022/04/07 07:20:26;;;;;;;13.40;8.35;;;;;;;14.64;63.85;98303.17;1620148;88;26362;-69
2022/04/07 07:22:53;;;;;;;14.47;8.50;;;;;;;14.70;62.97;98302.42;1597038;88;25662;-69
2022/04/07 07:25:20;;;;;;;16.25;8.90;;;;;;;14.79;61.32;98300.69;1592742;89;27916;-69
2022/04/07 07:27:48;;;;;;;11.83;8.03;;;;;;;14.99;60.94;98296.27;1584733;88;25490;-69
2022/04/07 07:30:17;;;;;;;12.58;8.00;;;;;;;15.21;58.97;98288.30;1590295;88;25603;-69
2022/04/07 07:32:47;;;;;;;12.78;8.20;;;;;;;15.28;58.97;98293.75;1593480;89;25820;-70
2022/04/07 07:35:20;;;;;;;11.38;7.37;;;;;;;15.29;59.06;98286.37;1593768;89;25456;-69
2022/04/07 07:37:54;;;;;;;14.15;7.70;;;;;;;15.11;57.83;98302.69;1599169;87;29497;-69
2022/04/07 07:40:25;;;;;;;11.45;7.92;;;;;;;15.17;58.08;98291.63;1588664;88;27134;-69
2022/04/07 07:42:56;;;;;;;10.80;8.03;;;;;;;15.43;57.70;98295.89;1559045;90;25767;-69
2022/04/07 07:45:24;;;;;;;13.80;8.18;;;;;;;15.60;55.72;98273.89;1607397;88;25618;-69
2022/04/07 07:47:54;;;;;;;10.35;7.40;;;;;;;15.75;57.53;98284.75;1590992;88;25850;-70
2022/04/07 07:50:22;;;;;;;14.00;7.83;;;;;;;16.10;54.61;98285.87;1593147;88;27320;-69
2022/04/07 07:52:49;;;;;;;13.53;7.62;;;;;;;16.26;54.85;98295.77;1589859;88;25668;-70
2022/04/07 07:55:17;;;;;;;15.18;7.00;;;;;;;16.44;56.17;98279.30;1591181;89;25827;-70
2022/04/07 07:57:44;;;;;;;11.80;6.10;;;;;;;16.66;53.94;98281.93;1587095;89;25628;-70
2022/04/07 08:00:15;;;;;;;10.10;6.90;;;;;;;16.77;51.34;98283.99;1591693;88;25552;-70
2022/04/07 08:02:40;;;;;;;12.47;7.25;;;;;;;16.85;51.81;98277.94;1591335;88;28025;-70
2022/04/07 08:05:08;;;;;;;9.90;6.35;;;;;;;16.91;53.04;98265.44;1572269;89;25547;-70
2022/04/07 08:07:42;;;;;;;10.43;6.53;;;;;;;17.23;54.47;98269.86;1586803;89;25515;-69
2022/04/07 08:10:10;;;;;;;10.03;6.50;;;;;;;17.55;50.91;98267.64;1576308;89;25930;-69
2022/04/07 08:12:40;;;;;;;11.38;6.42;;;;;;;17.68;51.71;98267.12;1575266;90;25757;-70
2022/04/07 08:15:08;;;;;;;8.93;5.78;;;;;;;18.05;51.72;98284.14;1589140;88;27356;-69
2022/04/07 08:17:35;;;;;;;8.68;6.17;;;;;;;18.05;51.72;98284.14;1613720;88;25873;-68
2022/04/07 08:20:04;;;;;;;10.72;5.60;;;;;;;17.99;49.20;98270.72;1590460;88;25440;-68
2022/04/07 08:22:31;;;;;;;6.45;5.22;;;;;;;17.84;48.37;98264.63;1603596;87;26171;-67
2022/04/07 08:24:57;;;;;;;6.58;4.35;;;;;;;17.46;46.84;98261.85;1587063;88;25879;-68
2022/04/07 08:27:24;;;;;;;7.80;4.00;;;;;;;17.16;46.78;98259.19;1588247;88;27370;-67
2022/04/07 08:29:52;;;;;;;6.80;3.92;;;;;;;17.21;49.42;98268.13;1594460;89;25437;-67
2022/04/07 08:32:19;;;;;;;7.55;4.17;;;;;;;17.62;49.51;98261.33;1607769;87;26523;-68
2022/04/07 08:34:46;;;;;;;6.40;3.75;;;;;;;17.90;49.20;98265.73;1594106;89;25755;-68
2022/04/07 08:37:13;;;;;;;5.33;3.90;;;;;;;18.21;47.48;98265.01;1588627;88;25750;-69
2022/04/07 08:39:41;;;;;;;6.45;4.45;;;;;;;18.16;47.97;98260.75;1595595;87;27938;-67
2022/04/07 08:42:08;;;;;;;7.72;4.35;;;;;;;18.16;47.38;98258.02;1643491;86;25882;-68
2022/04/07 08:44:34;;;;;;;6.22;4.42;;;;;;;18.10;46.98;98255.57;1624990;87;25801;-68
2022/04/07 08:47:02;;;;;;;9.20;4.83;;;;;;;17.97;47.03;98253.18;1578554;90;26304;-68
2022/04/07 08:49:31;;;;;;;9.20;4.30;;;;;;;18.00;46.48;98249.03;1605341;88;25863;-67
2022/04/07 08:51:59;;;;;;;12.05;5.47;;;;;;;18.36;48.06;98251.33;1638733;86;28026;-68
2022/04/07 08:54:26;;;;;;;7.53;5.30;;;;;;;18.88;46.61;98259.05;1640988;86;25825;-68
2022/04/07 08:56:54;;;;;;;7.45;5.00;;;;;;;18.85;44.58;98249.11;1636265;86;25848;-69
2022/04/07 08:59:20;;;;;;;9.05;5.45;;;;;;;18.84;44.73;98250.28;1612419;87;25749;-69
2022/04/07 09:01:47;;;;;;;7.78;4.72;;;;;;;18.61;42.21;98264.69;1633834;86;25816;-69
2022/04/07 09:04:14;;;;;;;6.53;4.42;;;;;;;18.03;44.55;98252.90;1619170;87;27330;-68
2022/04/07 09:06:42;;;;;;;10.03;5.50;;;;;;;17.81;45.21;98251.76;1637068;86;25900;-68
2022/04/07 09:09:11;;;;;;;8.00;4.92;;;;;;;17.54;45.38;98248.31;1609928;87;25679;-68
2022/04/07 09:11:39;;;;;;;8.70;5.20;;;;;;;17.55;44.61;98244.98;1646613;86;26182;-68
2022/04/07 09:14:08;;;;;;;8.63;4.95;;;;;;;17.48;45.81;98241.72;1621160;87;25776;-68
2022/04/07 09:16:39;;;;;;;8.28;5.15;;;;;;;17.77;45.47;98251.00;1643495;86;27969;-68
2022/04/07 09:19:07;;;;;;;10.05;5.03;;;;;;;18.11;46.27;98236.59;1639807;87;25859;-68
2022/04/07 09:21:37;;;;;;;7.50;5.12;;;;;;;18.64;46.51;98234.33;1606066;88;25444;-68
2022/04/07 09:24:07;;;;;;;9.55;5.47;;;;;;;18.91;43.24;98245.30;1620944;87;27856;-68
2022/04/07 09:26:43;;;;;;;8.18;5.58;;;;;;;19.03;45.59;98229.67;1647269;86;25847;-68
2022/04/07 09:29:13;;;;;;;8.28;5.08;;;;;;;19.25;41.15;98238.89;1623861;87;28076;-68
2022/04/07 09:31:53;;;;;;;6.35;4.50;;;;;;;19.15;43.66;98218.69;1607421;88;26382;-68
2022/04/07 09:34:32;;;;;;;6.15;4.40;;;;;;;19.41;43.20;98211.60;1610016;88;25898;-68
2022/04/07 09:37:07;;;;;;;8.70;5.42;;;;;;;19.60;43.29;98216.16;1652483;86;25653;-68
2022/04/07 09:39:36;;;;;;;9.35;6.00;;;;;;;19.57;40.22;98225.99;1614555;86;25499;-68
2022/04/07 09:42:25;;;;;;;5.87;5.00;;;;;;;19.23;39.65;98233.06;1645006;86;30037;-69
2022/04/07 09:44:57;;;;;;;7.70;5.12;;;;;;;19.27;40.96;98207.72;1643993;86;25500;-67
2022/04/07 09:47:39;;;;;;;8.75;5.28;;;;;;;19.54;42.33;98204.13;1619505;87;25766;-67
2022/04/07 09:50:08;;;;;;;8.53;5.58;;;;;;;19.67;42.09;98209.17;1602087;88;26411;-68
2022/04/07 09:52:42;;;;;;;10.58;5.65;;;;;;;19.73;40.13;98199.27;1639582;86;25482;-67
2022/04/07 09:55:11;;;;;;;7.22;5.20;;;;;;;19.81;41.21;98191.69;1609771;87;27929;-68
2022/04/07 09:57:38;;;;;;;6.53;4.15;;;;;;;20.27;39.21;98180.95;1612340;88;25746;-68
2022/04/07 10:00:07;;;;;;;8.65;5.10;;;;;;;20.80;39.14;98182.32;1651672;85;25624;-68
2022/04/07 10:02:34;;;;;;;7.15;4.60;;;;;;;20.75;38.15;98190.47;1623709;87;25796;-68
2022/04/07 10:05:02;;;;;;;7.50;5.20;;;;;;;20.79;37.70;98182.93;1594477;88;25165;-68
2022/04/07 10:07:29;;;;;;;7.85;5.35;;;;;;;20.48;36.85;98207.94;1617703;87;27328;-68
2022/04/07 10:09:56;;;;;;;7.03;5.37;;;;;;;19.85;37.81;98183.38;1570765;89;25960;-68
2022/04/07 10:12:25;;;;;;;6.67;5.03;;;;;;;19.18;39.44;98173.25;1602409;88;25429;-69
2022/04/07 10:14:53;;;;;;;6.12;4.42;;;;;;;18.96;38.93;98174.97;1632992;86;25643;-69
2022/04/07 10:17:20;;;;;;;6.62;4.10;;;;;;;19.01;40.98;98160.80;1634462;86;25925;-69
2022/04/07 10:19:54;;;;;;;6.53;4.53;;;;;;;19.41;41.07;98149.16;1632156;87;27284;-69
2022/04/07 10:22:54;;;;;;;5.90;3.85;;;;;;;19.81;38.91;98148.41;1637095;86;25831;-69
2022/04/07 10:25:23;;;;;;;5.22;3.83;;;;;;;19.68;37.93;98147.66;1617378;87;25287;-69
2022/04/07 10:27:59;;;;;;;6.40;4.25;;;;;;;19.31;39.95;98137.80;1608860;87;25624;-69
2022/04/07 10:30:32;;;;;;;4.70;4.15;;;;;;;19.39;40.31;98146.83;1617328;87;25437;-71
2022/04/07 10:33:00;;;;;;;5.05;3.50;;;;;;;19.64;38.06;98144.80;1583631;89;27368;-68
2022/04/07 10:35:50;;;;;;;11.20;4.23;;;;;;;19.36;38.74;98140.82;1610170;88;25856;-67
2022/04/07 10:38:38;;;;;;;6.42;3.50;;;;;;;18.87;38.85;98118.60;1607524;88;25706;-67
2022/04/07 10:41:06;;;;;;;6.75;3.42;;;;;;;18.57;40.21;98105.16;1613815;87;25758;-69
2022/04/07 10:43:38;;;;;;;5.08;4.17;;;;;;;18.42;39.53;98108.74;1588915;88;25894;-69
2022/04/07 10:46:14;;;;;;;6.10;3.50;;;;;;;18.21;40.27;98117.27;1612950;88;27430;-70
2022/04/07 10:49:10;;;;;;;4.75;3.30;;;;;;;17.87;40.10;98111.28;1609127;88;30222;-70
2022/04/07 10:51:51;;;;;;;4.47;3.20;;;;;;;17.59;41.18;98119.20;1589316;88;26371;-76
2022/04/07 10:54:17;;;;;;;4.92;3.17;;;;;;;17.35;42.35;98105.45;1605671;87;25649;-74
2022/04/07 10:56:50;;;;;;;6.05;3.22;;;;;;;16.93;42.41;98103.34;1597977;87;25571;-74
2022/04/07 10:59:23;;;;;;;5.60;3.92;;;;;;;16.61;43.12;98100.27;1596507;88;27316;-74
2022/04/07 11:01:54;;;;;;;6.15;3.52;;;;;;;16.28;43.97;98102.47;1577527;89;25675;-74
2022/04/07 11:04:29;;;;;;;3.92;3.52;;;;;;;15.90;43.84;98131.51;1597258;88;25787;-76
2022/04/07 11:07:11;;;;;;;4.97;3.70;;;;;;;15.68;44.79;98107.04;1600480;89;25938;-75
2022/04/07 11:09:52;;;;;;;8.05;3.62;;;;;;;15.57;45.42;98108.45;1604700;89;25915;-76
2022/04/07 11:12:31;;;;;;;5.37;3.62;;;;;;;15.63;46.03;98107.45;1594321;89;27351;-76
2022/04/07 11:15:09;;;;;;;5.95;3.50;;;;;;;15.81;45.77;98115.59;1615914;87;25251;-76
2022/04/07 11:17:47;;;;;;;6.95;3.98;;;;;;;15.98;46.16;98096.99;1598122;89;25667;-76
2022/04/07 11:20:26;;;;;;;5.65;3.50;;;;;;;16.24;46.32;98101.13;1599105;88;26120;-75
2022/04/07 11:23:05;;;;;;;4.10;3.47;;;;;;;16.56;46.00;98082.36;1616760;88;25693;-75
2022/04/07 11:25:40;;;;;;;5.17;3.83;;;;;;;16.91;44.90;98077.03;1601066;87;27316;-74
2022/04/07 11:28:19;;;;;;;4.65;3.30;;;;;;;17.07;44.82;98084.66;1617243;86;25710;-75
2022/04/07 11:30:53;;;;;;;4.90;3.17;;;;;;;17.08;44.46;98076.06;1636161;85;26150;-74
2022/04/07 11:33:28;;;;;;;4.83;3.50;;;;;;;17.18;44.18;98071.08;1648384;86;25673;-76
2022/04/07 11:36:07;;;;;;;6.42;3.47;;;;;;;17.20;43.51;98068.52;1617089;87;25674;-75
2022/04/07 11:38:44;;;;;;;;;;;;;;;17.24;43.05;98076.09;1624879;86;27400;-75
2022/04/07 11:41:13;;;;;;;3.25;2.80;;;;;;;17.33;42.89;98077.73;1590031;87;25695;-74